PWSweather.com
Personal Weather Stations
Station Observations
KOMOKA2
Middlesex Centre, Komoka, ON N0L 1R0

Middlesex CentreKomoka, ON N0L 1R0

Lat: 42.9542444, Lon: -81.4348861

Elevation: 805

Station Type: Davis VP2 w/ Vue Console

Latest ConditionsUpdated 8:40:03 PM EDT Saturday, Oct 20, 2018
Currently Today's Max Today's Min Today's Average
Temperature 38.2°F3.4°C 52.6°F11.4°C 38.1°F3.4°C 45.2°F7.3°C
Dew Point 33.0°F0.6°C 45.0°F7.2°C 32.0°F0.0°C 39.3°F4.1°C
Winds 1.0 mph NE1.6 kmh NE 12.0 mph -19.3 kmh - - 2.3 mph 3.7 kmh
Wind Gusts 6.0 mph9.7 kmh 15.0 mph24.1 kmh - -
Humidity 80% 84% 68% 80%
Pressure 29.82 in1009.8 mb 29.82 in1009.8 mb 29.61 in1002.7 mb -
Precipitation - 0.22 in5.6 mm - -
Hour Temp Dew Point Humidity Winds Wind Gusts Pressure Precip Precip Rate Daily Precip Total
08:40 PM 38.2°F3.4°C 33.0°F0.6°C 80% 1.0 mph NE1.6 kmh NE 6.0 mph9.7 kmh 29.82 in1009.8 mb 0.00 in0.0 mm 0.00 in0.0 mm 0.22 in5.6 mm
08:35 PM 38.2°F3.4°C 33.0°F0.6°C 80% 1.0 mph E1.6 kmh E 4.0 mph6.4 kmh 29.81 in1009.5 mb 0.00 in0.0 mm 0.00 in0.0 mm 0.22 in5.6 mm
08:30 PM 38.1°F3.4°C 32.0°F0.0°C 80% 1.0 mph ESE1.6 kmh ESE 8.0 mph12.9 kmh 29.81 in1009.5 mb 0.00 in0.0 mm 0.00 in0.0 mm 0.22 in5.6 mm
08:25 PM 38.1°F3.4°C 32.0°F0.0°C 80% 2.0 mph NNE3.2 kmh NNE 8.0 mph12.9 kmh 29.81 in1009.5 mb 0.00 in0.0 mm 0.00 in0.0 mm 0.22 in5.6 mm
08:20 PM 38.1°F3.4°C 32.0°F0.0°C 80% 1.0 mph W1.6 kmh W 9.0 mph14.5 kmh 29.80 in1009.1 mb 0.00 in0.0 mm 0.00 in0.0 mm 0.22 in5.6 mm
08:15 PM 38.2°F3.4°C 33.0°F0.6°C 80% Calm Calm 11.0 mph17.7 kmh 29.81 in1009.5 mb 0.00 in0.0 mm 0.00 in0.0 mm 0.22 in5.6 mm
08:10 PM 38.1°F3.4°C 32.0°F0.0°C 80% 1.0 mph WNW1.6 kmh WNW 11.0 mph17.7 kmh 29.80 in1009.1 mb 0.00 in0.0 mm 0.00 in0.0 mm 0.22 in5.6 mm
08:05 PM 38.2°F3.4°C 33.0°F0.6°C 81% 1.0 mph S1.6 kmh S 9.0 mph14.5 kmh 29.80 in1009.1 mb 0.00 in0.0 mm 0.00 in0.0 mm 0.22 in5.6 mm
08:00 PM 38.3°F3.5°C 33.0°F0.6°C 81% 2.0 mph SE3.2 kmh SE 10.0 mph16.1 kmh 29.80 in1009.1 mb 0.01 in0.3 mm 0.00 in0.0 mm 0.22 in5.6 mm
07:55 PM 38.4°F3.6°C 33.0°F0.6°C 80% 5.0 mph WNW8.0 kmh WNW 10.0 mph16.1 kmh 29.79 in1008.8 mb 0.01 in0.3 mm 0.00 in0.0 mm 0.22 in5.6 mm
07:50 PM 38.5°F3.6°C 33.0°F0.6°C 81% 2.0 mph NW3.2 kmh NW 6.0 mph9.7 kmh 29.79 in1008.8 mb 0.02 in0.5 mm 0.00 in0.0 mm 0.22 in5.6 mm
07:45 PM 38.9°F3.8°C 34.0°F1.1°C 82% 2.0 mph W3.2 kmh W 11.0 mph17.7 kmh 29.79 in1008.8 mb 0.02 in0.5 mm 0.00 in0.0 mm 0.22 in5.6 mm
07:40 PM 39.0°F3.9°C 34.0°F1.1°C 83% 4.0 mph W6.4 kmh W 5.0 mph8.0 kmh 29.78 in1008.5 mb 0.02 in0.5 mm 0.00 in0.0 mm 0.22 in5.6 mm
07:35 PM 38.8°F3.8°C 34.0°F1.1°C 84% 1.0 mph S1.6 kmh S 5.0 mph8.0 kmh 29.77 in1008.1 mb 0.02 in0.5 mm 0.00 in0.0 mm 0.22 in5.6 mm
07:30 PM 38.6°F3.7°C 34.0°F1.1°C 84% 1.0 mph NW1.6 kmh NW 5.0 mph8.0 kmh 29.77 in1008.1 mb 0.02 in0.5 mm 0.00 in0.0 mm 0.22 in5.6 mm
07:25 PM 38.5°F3.6°C 34.0°F1.1°C 84% Calm Calm 6.0 mph9.7 kmh 29.76 in1007.8 mb 0.02 in0.5 mm 0.00 in0.0 mm 0.22 in5.6 mm
07:20 PM 38.4°F3.6°C 34.0°F1.1°C 84% 1.0 mph NW1.6 kmh NW 6.0 mph9.7 kmh 29.76 in1007.8 mb 0.02 in0.5 mm 0.00 in0.0 mm 0.22 in5.6 mm
07:15 PM 38.4°F3.6°C 34.0°F1.1°C 84% Calm Calm 7.0 mph11.3 kmh 29.75 in1007.5 mb 0.02 in0.5 mm 0.00 in0.0 mm 0.22 in5.6 mm
07:10 PM 38.2°F3.4°C 34.0°F1.1°C 84% 1.0 mph NNE1.6 kmh NNE 13.0 mph20.9 kmh 29.75 in1007.5 mb 0.02 in0.5 mm 0.00 in0.0 mm 0.22 in5.6 mm
07:05 PM 38.3°F3.5°C 34.0°F1.1°C 84% 3.0 mph NNE4.8 kmh NNE 13.0 mph20.9 kmh 29.75 in1007.5 mb 0.03 in0.8 mm 0.12 in3.0 mm 0.22 in5.6 mm
07:00 PM 38.8°F3.8°C 34.0°F1.1°C 83% 3.0 mph W4.8 kmh W 7.0 mph11.3 kmh 29.75 in1007.5 mb 0.02 in0.5 mm 0.00 in0.0 mm 0.21 in5.3 mm
06:55 PM 39.3°F4.1°C 35.0°F1.7°C 84% 4.0 mph NE6.4 kmh NE 7.0 mph11.3 kmh 29.74 in1007.1 mb 0.02 in0.5 mm 0.12 in3.0 mm 0.20 in5.1 mm
06:50 PM 39.5°F4.2°C 35.0°F1.7°C 84% 6.0 mph SSW9.7 kmh SSW 6.0 mph9.7 kmh 29.73 in1006.8 mb 0.01 in0.3 mm 0.00 in0.0 mm 0.20 in5.1 mm
06:45 PM 39.3°F4.1°C 35.0°F1.7°C 84% 3.0 mph NW4.8 kmh NW 4.0 mph6.4 kmh 29.72 in1006.4 mb 0.01 in0.3 mm 0.00 in0.0 mm 0.20 in5.1 mm
06:40 PM 39.1°F3.9°C 35.0°F1.7°C 84% Calm Calm 3.0 mph4.8 kmh 29.72 in1006.4 mb 0.02 in0.5 mm 0.00 in0.0 mm 0.20 in5.1 mm
06:35 PM 39.0°F3.9°C 34.0°F1.1°C 83% 1.0 mph NW1.6 kmh NW 3.0 mph4.8 kmh 29.72 in1006.4 mb 0.03 in0.8 mm 0.00 in0.0 mm 0.20 in5.1 mm
06:30 PM 38.9°F3.8°C 34.0°F1.1°C 83% Calm Calm 2.0 mph3.2 kmh 29.71 in1006.1 mb 0.05 in1.3 mm 0.00 in0.0 mm 0.20 in5.1 mm
06:25 PM 38.8°F3.8°C 34.0°F1.1°C 83% Calm Calm -- 29.70 in1005.8 mb 0.06 in1.5 mm 0.00 in0.0 mm 0.20 in5.1 mm
06:20 PM 38.8°F3.8°C 34.0°F1.1°C 83% Calm Calm 4.0 mph6.4 kmh 29.69 in1005.4 mb 0.07 in1.8 mm 0.00 in0.0 mm 0.20 in5.1 mm
06:15 PM 38.9°F3.8°C 34.0°F1.1°C 83% Calm Calm 4.0 mph6.4 kmh 29.69 in1005.4 mb 0.09 in2.3 mm 0.00 in0.0 mm 0.20 in5.1 mm
06:10 PM 39.1°F3.9°C 34.0°F1.1°C 83% 1.0 mph NNE1.6 kmh NNE 3.0 mph4.8 kmh 29.69 in1005.4 mb 0.10 in2.5 mm 0.00 in0.0 mm 0.20 in5.1 mm
06:05 PM 39.0°F3.9°C 34.0°F1.1°C 83% Calm Calm 4.0 mph6.4 kmh 29.69 in1005.4 mb 0.10 in2.5 mm 0.00 in0.0 mm 0.19 in4.8 mm
06:00 PM 38.9°F3.8°C 34.0°F1.1°C 82% 1.0 mph N1.6 kmh N 6.0 mph9.7 kmh 29.68 in1005.1 mb 0.10 in2.5 mm 0.00 in0.0 mm 0.19 in4.8 mm
05:55 PM 38.8°F3.8°C 34.0°F1.1°C 82% 4.0 mph NE6.4 kmh NE 8.0 mph12.9 kmh 29.68 in1005.1 mb 0.10 in2.5 mm 0.00 in0.0 mm 0.19 in4.8 mm
05:50 PM 38.8°F3.8°C 34.0°F1.1°C 82% 1.0 mph N1.6 kmh N 8.0 mph12.9 kmh 29.68 in1005.1 mb 0.10 in2.5 mm 0.00 in0.0 mm 0.19 in4.8 mm
05:45 PM 38.9°F3.8°C 34.0°F1.1°C 81% 3.0 mph N4.8 kmh N 7.0 mph11.3 kmh 29.69 in1005.4 mb 0.10 in2.5 mm 0.12 in3.0 mm 0.19 in4.8 mm
05:40 PM 39.1°F3.9°C 34.0°F1.1°C 81% 1.0 mph N1.6 kmh N 11.0 mph17.7 kmh 29.69 in1005.4 mb 0.09 in2.3 mm 0.12 in3.0 mm 0.17 in4.3 mm
05:35 PM 39.4°F4.1°C 34.0°F1.1°C 81% 3.0 mph N4.8 kmh N 11.0 mph17.7 kmh 29.68 in1005.1 mb 0.08 in2.0 mm 0.24 in6.1 mm 0.17 in4.3 mm
05:30 PM 39.7°F4.3°C 34.0°F1.1°C 81% 2.0 mph NNW3.2 kmh NNW 9.0 mph14.5 kmh 29.69 in1005.4 mb 0.06 in1.5 mm 0.12 in3.0 mm 0.15 in3.8 mm
05:25 PM 40.3°F4.6°C 35.0°F1.7°C 81% 5.0 mph NW8.0 kmh NW 9.0 mph14.5 kmh 29.68 in1005.1 mb 0.05 in1.3 mm 0.24 in6.1 mm 0.13 in3.3 mm
05:20 PM 40.6°F4.8°C 35.0°F1.7°C 81% 1.0 mph NNE1.6 kmh NNE 8.0 mph12.9 kmh 29.67 in1004.7 mb 0.03 in0.8 mm 0.24 in6.1 mm 0.12 in3.0 mm
05:15 PM 41.0°F5.0°C 36.0°F2.2°C 81% 1.0 mph NNE1.6 kmh NNE 12.0 mph19.3 kmh 29.66 in1004.4 mb 0.01 in0.3 mm 0.12 in3.0 mm 0.09 in2.3 mm
05:10 PM 41.1°F5.1°C 36.0°F2.2°C 81% 3.0 mph N4.8 kmh N 12.0 mph19.3 kmh 29.66 in1004.4 mb 0.00 in0.0 mm 0.00 in0.0 mm 0.09 in2.3 mm
05:05 PM 41.4°F5.2°C 36.0°F2.2°C 81% 1.0 mph N1.6 kmh N 11.0 mph17.7 kmh 29.65 in1004.1 mb 0.00 in0.0 mm 0.00 in0.0 mm 0.09 in2.3 mm
05:00 PM 42.1°F5.6°C 36.0°F2.2°C 80% 9.0 mph N14.5 kmh N 13.0 mph20.9 kmh 29.65 in1004.1 mb 0.00 in0.0 mm 0.00 in0.0 mm 0.09 in2.3 mm
04:55 PM 42.7°F5.9°C 37.0°F2.8°C 80% 1.0 mph N1.6 kmh N 13.0 mph20.9 kmh 29.64 in1003.7 mb 0.00 in0.0 mm 0.00 in0.0 mm 0.09 in2.3 mm
04:50 PM 42.9°F6.1°C 37.0°F2.8°C 81% 4.0 mph WSW6.4 kmh WSW 9.0 mph14.5 kmh 29.63 in1003.4 mb 0.00 in0.0 mm 0.00 in0.0 mm 0.09 in2.3 mm
04:45 PM 42.9°F6.1°C 37.0°F2.8°C 80% 3.0 mph NW4.8 kmh NW 14.0 mph22.5 kmh 29.63 in1003.4 mb 0.00 in0.0 mm 0.00 in0.0 mm 0.09 in2.3 mm
04:40 PM 43.0°F6.1°C 37.0°F2.8°C 79% 3.0 mph S4.8 kmh S 14.0 mph22.5 kmh 29.63 in1003.4 mb 0.00 in0.0 mm 0.00 in0.0 mm 0.09 in2.3 mm
04:35 PM 43.4°F6.3°C 37.0°F2.8°C 78% 4.0 mph NW6.4 kmh NW 12.0 mph19.3 kmh 29.64 in1003.7 mb 0.00 in0.0 mm 0.00 in0.0 mm 0.09 in2.3 mm
04:30 PM 44.6°F7.0°C 37.0°F2.8°C 76% 4.0 mph NW6.4 kmh NW 12.0 mph19.3 kmh 29.63 in1003.4 mb 0.00 in0.0 mm 0.00 in0.0 mm 0.09 in2.3 mm
04:25 PM 45.7°F7.6°C 39.0°F3.9°C 76% 4.0 mph WSW6.4 kmh WSW 10.0 mph16.1 kmh 29.63 in1003.4 mb 0.00 in0.0 mm 0.00 in0.0 mm 0.09 in2.3 mm
04:20 PM 46.3°F7.9°C 39.0°F3.9°C 76% 8.0 mph WNW12.9 kmh WNW 8.0 mph12.9 kmh 29.62 in1003.0 mb 0.00 in0.0 mm 0.00 in0.0 mm 0.09 in2.3 mm
04:15 PM 46.4°F8.0°C 39.0°F3.9°C 76% 1.0 mph WSW1.6 kmh WSW 3.0 mph4.8 kmh 29.62 in1003.0 mb 0.00 in0.0 mm 0.00 in0.0 mm 0.09 in2.3 mm
04:10 PM 46.5°F8.1°C 39.0°F3.9°C 74% Calm Calm 3.0 mph4.8 kmh 29.61 in1002.7 mb 0.00 in0.0 mm 0.00 in0.0 mm 0.09 in2.3 mm
04:05 PM 46.7°F8.2°C 38.0°F3.3°C 73% Calm Calm 3.0 mph4.8 kmh 29.61 in1002.7 mb 0.00 in0.0 mm 0.00 in0.0 mm 0.09 in2.3 mm
04:00 PM 47.1°F8.4°C 39.0°F3.9°C 73% 1.0 mph S1.6 kmh S 4.0 mph6.4 kmh 29.61 in1002.7 mb 0.00 in0.0 mm 0.00 in0.0 mm 0.09 in2.3 mm
03:55 PM 47.2°F8.4°C 40.0°F4.4°C 75% Calm Calm 3.0 mph4.8 kmh 29.61 in1002.7 mb 0.01 in0.3 mm 0.00 in0.0 mm 0.09 in2.3 mm
03:50 PM 46.7°F8.2°C 38.0°F3.3°C 73% 1.0 mph SSW1.6 kmh SSW 3.0 mph4.8 kmh 29.61 in1002.7 mb 0.01 in0.3 mm 0.00 in0.0 mm 0.09 in2.3 mm
03:45 PM 46.4°F8.0°C 39.0°F3.9°C 75% 2.0 mph SSW3.2 kmh SSW 3.0 mph4.8 kmh 29.61 in1002.7 mb 0.01 in0.3 mm 0.00 in0.0 mm 0.09 in2.3 mm
03:40 PM 46.6°F8.1°C 38.0°F3.3°C 73% 3.0 mph W4.8 kmh W 3.0 mph4.8 kmh 29.61 in1002.7 mb 0.01 in0.3 mm 0.00 in0.0 mm 0.09 in2.3 mm
03:35 PM 46.5°F8.1°C 39.0°F3.9°C 76% 1.0 mph S1.6 kmh S 3.0 mph4.8 kmh 29.62 in1003.0 mb 0.01 in0.3 mm 0.00 in0.0 mm 0.09 in2.3 mm
03:30 PM 45.6°F7.6°C 39.0°F3.9°C 79% 1.0 mph WSW1.6 kmh WSW 2.0 mph3.2 kmh 29.62 in1003.0 mb 0.01 in0.3 mm 0.00 in0.0 mm 0.09 in2.3 mm
03:25 PM 44.9°F7.2°C 39.0°F3.9°C 79% 2.0 mph WSW3.2 kmh WSW 3.0 mph4.8 kmh 29.63 in1003.4 mb 0.01 in0.3 mm 0.00 in0.0 mm 0.09 in2.3 mm
03:20 PM 44.5°F6.9°C 38.0°F3.3°C 79% 1.0 mph W1.6 kmh W 3.0 mph4.8 kmh 29.63 in1003.4 mb 0.01 in0.3 mm 0.00 in0.0 mm 0.09 in2.3 mm
03:15 PM 44.1°F6.7°C 38.0°F3.3°C 80% Calm Calm 3.0 mph4.8 kmh 29.63 in1003.4 mb 0.02 in0.5 mm 0.00 in0.0 mm 0.09 in2.3 mm
03:10 PM 43.7°F6.5°C 38.0°F3.3°C 81% 1.0 mph W1.6 kmh W 3.0 mph4.8 kmh 29.63 in1003.4 mb 0.03 in0.8 mm 0.00 in0.0 mm 0.09 in2.3 mm
03:05 PM 43.7°F6.5°C 39.0°F3.9°C 82% 1.0 mph NE1.6 kmh NE 2.0 mph3.2 kmh 29.63 in1003.4 mb 0.04 in1.0 mm 0.00 in0.0 mm 0.09 in2.3 mm
03:00 PM 43.8°F6.6°C 39.0°F3.9°C 83% 1.0 mph NE1.6 kmh NE 1.0 mph1.6 kmh 29.62 in1003.0 mb 0.05 in1.3 mm 0.01 in0.3 mm 0.09 in2.3 mm
02:55 PM 43.6°F6.4°C 38.0°F3.3°C 82% Calm Calm 2.0 mph3.2 kmh 29.61 in1002.7 mb 0.04 in1.0 mm 0.00 in0.0 mm 0.08 in2.0 mm
02:50 PM 43.1°F6.2°C 38.0°F3.3°C 81% 1.0 mph NE1.6 kmh NE 2.0 mph3.2 kmh 29.61 in1002.7 mb 0.04 in1.0 mm 0.00 in0.0 mm 0.08 in2.0 mm
02:45 PM 43.0°F6.1°C 38.0°F3.3°C 81% Calm Calm 2.0 mph3.2 kmh 29.62 in1003.0 mb 0.05 in1.3 mm 0.00 in0.0 mm 0.08 in2.0 mm
02:40 PM 42.9°F6.1°C 37.0°F2.8°C 80% Calm Calm 4.0 mph6.4 kmh 29.62 in1003.0 mb 0.05 in1.3 mm 0.00 in0.0 mm 0.08 in2.0 mm
02:35 PM 42.8°F6.0°C 37.0°F2.8°C 80% 1.0 mph NE1.6 kmh NE 4.0 mph6.4 kmh 29.62 in1003.0 mb 0.06 in1.5 mm 0.00 in0.0 mm 0.08 in2.0 mm
02:30 PM 43.2°F6.2°C 37.0°F2.8°C 79% Calm Calm 5.0 mph8.0 kmh 29.62 in1003.0 mb 0.06 in1.5 mm 0.00 in0.0 mm 0.08 in2.0 mm
02:25 PM 43.3°F6.3°C 37.0°F2.8°C 77% 1.0 mph WSW1.6 kmh WSW 8.0 mph12.9 kmh 29.63 in1003.4 mb 0.06 in1.5 mm 0.00 in0.0 mm 0.08 in2.0 mm
02:20 PM 43.2°F6.2°C 37.0°F2.8°C 78% 2.0 mph SW3.2 kmh SW 8.0 mph12.9 kmh 29.64 in1003.7 mb 0.06 in1.5 mm 0.12 in3.0 mm 0.08 in2.0 mm
02:15 PM 43.4°F6.3°C 37.0°F2.8°C 78% 4.0 mph SSW6.4 kmh SSW 8.0 mph12.9 kmh 29.64 in1003.7 mb 0.05 in1.3 mm 0.12 in3.0 mm 0.06 in1.5 mm
02:10 PM 44.0°F6.7°C 37.0°F2.8°C 76% 1.0 mph S1.6 kmh S 8.0 mph12.9 kmh 29.65 in1004.1 mb 0.04 in1.0 mm 0.12 in3.0 mm 0.06 in1.5 mm
02:05 PM 44.3°F6.8°C 37.0°F2.8°C 76% 4.0 mph W6.4 kmh W 6.0 mph9.7 kmh 29.65 in1004.1 mb 0.03 in0.8 mm 0.12 in3.0 mm 0.05 in1.3 mm
02:00 PM 44.4°F6.9°C 37.0°F2.8°C 76% 1.0 mph S1.6 kmh S 4.0 mph6.4 kmh 29.64 in1003.7 mb 0.02 in0.5 mm 0.00 in0.0 mm 0.04 in1.0 mm
01:55 PM 44.8°F7.1°C 37.0°F2.8°C 75% 1.0 mph SW1.6 kmh SW 7.0 mph11.3 kmh 29.64 in1003.7 mb 0.02 in0.5 mm 0.00 in0.0 mm 0.04 in1.0 mm
01:50 PM 45.3°F7.4°C 36.0°F2.2°C 71% 3.0 mph WSW4.8 kmh WSW 13.0 mph20.9 kmh 29.64 in1003.7 mb 0.02 in0.5 mm 0.00 in0.0 mm 0.03 in0.8 mm
01:45 PM 45.1°F7.3°C 37.0°F2.8°C 72% 5.0 mph NW8.0 kmh NW 13.0 mph20.9 kmh 29.64 in1003.7 mb 0.02 in0.5 mm 0.00 in0.0 mm 0.03 in0.8 mm
01:40 PM 45.7°F7.6°C 37.0°F2.8°C 71% 2.0 mph NW3.2 kmh NW 10.0 mph16.1 kmh 29.64 in1003.7 mb 0.02 in0.5 mm 0.12 in3.0 mm 0.03 in0.8 mm
01:35 PM 46.1°F7.8°C 36.0°F2.2°C 69% 7.0 mph WSW11.3 kmh WSW 10.0 mph16.1 kmh 29.65 in1004.1 mb 0.01 in0.3 mm 0.00 in0.0 mm 0.02 in0.5 mm
01:30 PM 46.7°F8.2°C 38.0°F3.3°C 72% 2.0 mph WSW3.2 kmh WSW 9.0 mph14.5 kmh 29.65 in1004.1 mb 0.01 in0.3 mm 0.12 in3.0 mm 0.02 in0.5 mm
01:25 PM 47.7°F8.7°C 38.0°F3.3°C 68% 3.0 mph NW4.8 kmh NW 11.0 mph17.7 kmh 29.64 in1003.7 mb 0.00 in0.0 mm 0.00 in0.0 mm 0.02 in0.5 mm
01:15 PM 49.8°F9.9°C 41.0°F5.0°C 72% 1.0 mph N1.6 kmh N 7.0 mph11.3 kmh 29.65 in1004.1 mb 0.00 in0.0 mm 0.00 in0.0 mm 0.02 in0.5 mm
01:10 PM 50.4°F10.2°C 42.0°F5.6°C 72% 3.0 mph N4.8 kmh N 4.0 mph6.4 kmh 29.66 in1004.4 mb 0.00 in0.0 mm 0.00 in0.0 mm 0.02 in0.5 mm
01:05 PM 51.1°F10.6°C 42.0°F5.6°C 72% 3.0 mph N4.8 kmh N 4.0 mph6.4 kmh 29.65 in1004.1 mb 0.00 in0.0 mm 0.00 in0.0 mm 0.02 in0.5 mm
01:00 PM 51.9°F11.1°C 43.0°F6.1°C 72% 1.0 mph N1.6 kmh N 4.0 mph6.4 kmh 29.66 in1004.4 mb 0.00 in0.0 mm 0.00 in0.0 mm 0.02 in0.5 mm
12:55 PM 52.6°F11.4°C 44.0°F6.7°C 72% 1.0 mph NW1.6 kmh NW 4.0 mph6.4 kmh 29.65 in1004.1 mb 0.00 in0.0 mm 0.00 in0.0 mm 0.02 in0.5 mm
12:50 PM 52.5°F11.4°C 44.0°F6.7°C 73% Calm Calm 5.0 mph8.0 kmh 29.65 in1004.1 mb 0.00 in0.0 mm 0.00 in0.0 mm 0.02 in0.5 mm
12:45 PM 51.9°F11.1°C 45.0°F7.2°C 76% 2.0 mph NW3.2 kmh NW 5.0 mph8.0 kmh 29.66 in1004.4 mb 0.00 in0.0 mm 0.00 in0.0 mm 0.02 in0.5 mm
12:40 PM 51.6°F10.9°C 45.0°F7.2°C 77% Calm Calm 3.0 mph4.8 kmh 29.66 in1004.4 mb 0.00 in0.0 mm 0.00 in0.0 mm 0.02 in0.5 mm
12:35 PM 49.5°F9.7°C 43.0°F6.1°C 78% 1.0 mph S1.6 kmh S 3.0 mph4.8 kmh 29.66 in1004.4 mb 0.00 in0.0 mm 0.00 in0.0 mm 0.02 in0.5 mm
12:30 PM 49.3°F9.6°C 43.0°F6.1°C 78% 2.0 mph WSW3.2 kmh WSW 3.0 mph4.8 kmh 29.67 in1004.7 mb 0.01 in0.3 mm 0.00 in0.0 mm 0.02 in0.5 mm
12:25 PM 48.8°F9.3°C 43.0°F6.1°C 79% 1.0 mph NW1.6 kmh NW 3.0 mph4.8 kmh 29.67 in1004.7 mb 0.01 in0.3 mm 0.00 in0.0 mm 0.02 in0.5 mm
12:20 PM 48.5°F9.2°C 42.0°F5.6°C 79% 2.0 mph NW3.2 kmh NW 3.0 mph4.8 kmh 29.68 in1005.1 mb 0.02 in0.5 mm 0.00 in0.0 mm 0.02 in0.5 mm
12:15 PM 48.5°F9.2°C 42.0°F5.6°C 79% 1.0 mph WSW1.6 kmh WSW 3.0 mph4.8 kmh 29.68 in1005.1 mb 0.02 in0.5 mm 0.00 in0.0 mm 0.02 in0.5 mm
12:10 PM 48.6°F9.2°C 42.0°F5.6°C 79% 1.0 mph WSW1.6 kmh WSW 3.0 mph4.8 kmh 29.68 in1005.1 mb 0.02 in0.5 mm 0.00 in0.0 mm 0.02 in0.5 mm
12:05 PM 48.7°F9.3°C 43.0°F6.1°C 80% 1.0 mph WSW1.6 kmh WSW 3.0 mph4.8 kmh 29.68 in1005.1 mb 0.02 in0.5 mm 0.00 in0.0 mm 0.02 in0.5 mm
12:00 PM 48.5°F9.2°C 43.0°F6.1°C 80% 2.0 mph WSW3.2 kmh WSW 3.0 mph4.8 kmh 29.69 in1005.4 mb 0.02 in0.5 mm 0.00 in0.0 mm 0.02 in0.5 mm
11:55 AM 48.1°F8.9°C 42.0°F5.6°C 80% 2.0 mph NW3.2 kmh NW 3.0 mph4.8 kmh 29.69 in1005.4 mb 0.02 in0.5 mm 0.00 in0.0 mm 0.02 in0.5 mm
11:50 AM 48.1°F8.9°C 42.0°F5.6°C 80% 1.0 mph W1.6 kmh W 3.0 mph4.8 kmh 29.69 in1005.4 mb 0.02 in0.5 mm 0.00 in0.0 mm 0.02 in0.5 mm
11:45 AM 48.1°F8.9°C 43.0°F6.1°C 81% 1.0 mph W1.6 kmh W 3.0 mph4.8 kmh 29.70 in1005.8 mb 0.02 in0.5 mm 0.00 in0.0 mm 0.02 in0.5 mm
11:35 AM 48.0°F8.9°C 42.0°F5.6°C 80% 1.0 mph NW1.6 kmh NW 3.0 mph4.8 kmh 29.70 in1005.8 mb 0.02 in0.5 mm 0.12 in3.0 mm 0.02 in0.5 mm
11:30 AM 48.0°F8.9°C 42.0°F5.6°C 79% 1.0 mph WSW1.6 kmh WSW 3.0 mph4.8 kmh 29.70 in1005.8 mb 0.01 in0.3 mm 0.00 in0.0 mm 0.01 in0.3 mm
11:25 AM 48.5°F9.2°C 42.0°F5.6°C 79% 2.0 mph WSW3.2 kmh WSW 4.0 mph6.4 kmh 29.71 in1006.1 mb 0.01 in0.3 mm 0.12 in3.0 mm 0.01 in0.3 mm
11:20 AM 48.7°F9.3°C 42.0°F5.6°C 79% 2.0 mph NW3.2 kmh NW 4.0 mph6.4 kmh 29.71 in1006.1 mb 0.00 in0.0 mm 0.00 in0.0 mm 0.00 in0.0 mm
11:15 AM 48.8°F9.3°C 42.0°F5.6°C 78% 3.0 mph W4.8 kmh W 7.0 mph11.3 kmh 29.71 in1006.1 mb 0.00 in0.0 mm 0.00 in0.0 mm 0.00 in0.0 mm
11:10 AM 48.9°F9.4°C 43.0°F6.1°C 79% 3.0 mph SW4.8 kmh SW 4.0 mph6.4 kmh 29.71 in1006.1 mb 0.00 in0.0 mm 0.00 in0.0 mm 0.00 in0.0 mm
11:05 AM 48.9°F9.4°C 43.0°F6.1°C 79% 2.0 mph WSW3.2 kmh WSW 3.0 mph4.8 kmh 29.71 in1006.1 mb 0.00 in0.0 mm 0.00 in0.0 mm 0.00 in0.0 mm
11:00 AM 48.9°F9.4°C 43.0°F6.1°C 79% 1.0 mph NW1.6 kmh NW 3.0 mph4.8 kmh 29.71 in1006.1 mb 0.00 in0.0 mm 0.00 in0.0 mm 0.00 in0.0 mm
10:55 AM 48.8°F9.3°C 43.0°F6.1°C 79% 2.0 mph W3.2 kmh W 4.0 mph6.4 kmh 29.72 in1006.4 mb 0.00 in0.0 mm 0.00 in0.0 mm 0.00 in0.0 mm
10:50 AM 49.0°F9.4°C 43.0°F6.1°C 80% 2.0 mph WSW3.2 kmh WSW 4.0 mph6.4 kmh 29.72 in1006.4 mb 0.00 in0.0 mm 0.00 in0.0 mm 0.00 in0.0 mm
10:45 AM 48.4°F9.1°C 43.0°F6.1°C 80% 1.0 mph WNW1.6 kmh WNW 5.0 mph8.0 kmh 29.71 in1006.1 mb 0.00 in0.0 mm 0.00 in0.0 mm 0.00 in0.0 mm
10:40 AM 48.1°F8.9°C 42.0°F5.6°C 79% 1.0 mph WSW1.6 kmh WSW 5.0 mph8.0 kmh 29.72 in1006.4 mb 0.00 in0.0 mm 0.00 in0.0 mm 0.00 in0.0 mm
10:35 AM 48.3°F9.1°C 42.0°F5.6°C 80% 2.0 mph WNW3.2 kmh WNW 5.0 mph8.0 kmh 29.72 in1006.4 mb 0.00 in0.0 mm 0.00 in0.0 mm 0.00 in0.0 mm
10:30 AM 48.1°F8.9°C 42.0°F5.6°C 80% 3.0 mph W4.8 kmh W 5.0 mph8.0 kmh 29.72 in1006.4 mb 0.00 in0.0 mm 0.00 in0.0 mm 0.00 in0.0 mm
10:25 AM 48.0°F8.9°C 42.0°F5.6°C 80% 2.0 mph W3.2 kmh W 5.0 mph8.0 kmh 29.72 in1006.4 mb 0.00 in0.0 mm 0.00 in0.0 mm 0.00 in0.0 mm
10:15 AM 47.8°F8.8°C 42.0°F5.6°C 80% 2.0 mph SW3.2 kmh SW 4.0 mph6.4 kmh 29.72 in1006.4 mb 0.00 in0.0 mm 0.00 in0.0 mm 0.00 in0.0 mm
10:10 AM 47.8°F8.8°C 42.0°F5.6°C 80% 2.0 mph W3.2 kmh W 4.0 mph6.4 kmh 29.72 in1006.4 mb 0.00 in0.0 mm 0.00 in0.0 mm 0.00 in0.0 mm
10:05 AM 47.8°F8.8°C 42.0°F5.6°C 80% 1.0 mph WSW1.6 kmh WSW 5.0 mph8.0 kmh 29.72 in1006.4 mb 0.00 in0.0 mm 0.00 in0.0 mm 0.00 in0.0 mm
10:00 AM 47.7°F8.7°C 42.0°F5.6°C 81% 1.0 mph NW1.6 kmh NW 5.0 mph8.0 kmh 29.72 in1006.4 mb 0.00 in0.0 mm 0.00 in0.0 mm 0.00 in0.0 mm
09:55 AM 47.6°F8.7°C 42.0°F5.6°C 80% 1.0 mph WSW1.6 kmh WSW 5.0 mph8.0 kmh 29.72 in1006.4 mb 0.00 in0.0 mm 0.00 in0.0 mm 0.00 in0.0 mm
09:50 AM 47.2°F8.4°C 41.0°F5.0°C 80% 3.0 mph SW4.8 kmh SW 5.0 mph8.0 kmh 29.72 in1006.4 mb 0.00 in0.0 mm 0.00 in0.0 mm 0.00 in0.0 mm
09:45 AM 46.9°F8.3°C 41.0°F5.0°C 80% 4.0 mph WSW6.4 kmh WSW 4.0 mph6.4 kmh 29.73 in1006.8 mb 0.00 in0.0 mm 0.00 in0.0 mm 0.00 in0.0 mm
09:40 AM 46.9°F8.3°C 41.0°F5.0°C 80% 2.0 mph WSW3.2 kmh WSW 6.0 mph9.7 kmh 29.72 in1006.4 mb 0.00 in0.0 mm 0.00 in0.0 mm 0.00 in0.0 mm
09:35 AM 47.0°F8.3°C 41.0°F5.0°C 80% 2.0 mph WSW3.2 kmh WSW 6.0 mph9.7 kmh 29.72 in1006.4 mb 0.00 in0.0 mm 0.00 in0.0 mm 0.00 in0.0 mm
09:30 AM 47.0°F8.3°C 41.0°F5.0°C 80% 2.0 mph SW3.2 kmh SW 6.0 mph9.7 kmh 29.72 in1006.4 mb 0.00 in0.0 mm 0.00 in0.0 mm 0.00 in0.0 mm
09:25 AM 46.9°F8.3°C 41.0°F5.0°C 80% 5.0 mph W8.0 kmh W 5.0 mph8.0 kmh 29.73 in1006.8 mb 0.00 in0.0 mm 0.00 in0.0 mm 0.00 in0.0 mm
09:20 AM 46.7°F8.2°C 41.0°F5.0°C 81% 4.0 mph WSW6.4 kmh WSW 5.0 mph8.0 kmh 29.73 in1006.8 mb 0.00 in0.0 mm 0.00 in0.0 mm 0.00 in0.0 mm
09:15 AM 46.5°F8.1°C 41.0°F5.0°C 81% 2.0 mph WSW3.2 kmh WSW 5.0 mph8.0 kmh 29.73 in1006.8 mb 0.00 in0.0 mm 0.00 in0.0 mm 0.00 in0.0 mm
09:10 AM 46.4°F8.0°C 41.0°F5.0°C 82% 1.0 mph SW1.6 kmh SW 4.0 mph6.4 kmh 29.73 in1006.8 mb 0.00 in0.0 mm 0.00 in0.0 mm 0.00 in0.0 mm
09:05 AM 46.2°F7.9°C 41.0°F5.0°C 83% 1.0 mph WSW1.6 kmh WSW 4.0 mph6.4 kmh 29.73 in1006.8 mb 0.00 in0.0 mm 0.00 in0.0 mm 0.00 in0.0 mm
09:00 AM 45.9°F7.7°C 41.0°F5.0°C 84% 1.0 mph SSW1.6 kmh SSW 4.0 mph6.4 kmh 29.72 in1006.4 mb 0.00 in0.0 mm 0.00 in0.0 mm 0.00 in0.0 mm
08:55 AM 45.5°F7.5°C 41.0°F5.0°C 84% 1.0 mph WSW1.6 kmh WSW 4.0 mph6.4 kmh 29.72 in1006.4 mb 0.00 in0.0 mm 0.00 in0.0 mm 0.00 in0.0 mm
08:50 AM 44.9°F7.2°C 40.0°F4.4°C 84% 4.0 mph SW6.4 kmh SW 4.0 mph6.4 kmh 29.72 in1006.4 mb 0.00 in0.0 mm 0.00 in0.0 mm 0.00 in0.0 mm
08:45 AM 44.5°F6.9°C 40.0°F4.4°C 84% 2.0 mph W3.2 kmh W 4.0 mph6.4 kmh 29.72 in1006.4 mb 0.00 in0.0 mm 0.00 in0.0 mm 0.00 in0.0 mm
08:40 AM 44.2°F6.8°C 40.0°F4.4°C 84% Calm Calm 3.0 mph4.8 kmh 29.72 in1006.4 mb 0.00 in0.0 mm 0.00 in0.0 mm 0.00 in0.0 mm
08:35 AM 44.1°F6.7°C 40.0°F4.4°C 84% 1.0 mph WSW1.6 kmh WSW 3.0 mph4.8 kmh 29.72 in1006.4 mb 0.00 in0.0 mm 0.00 in0.0 mm 0.00 in0.0 mm
08:30 AM 44.0°F6.7°C 40.0°F4.4°C 84% 2.0 mph WSW3.2 kmh WSW 3.0 mph4.8 kmh 29.71 in1006.1 mb 0.00 in0.0 mm 0.00 in0.0 mm 0.00 in0.0 mm
08:25 AM 44.1°F6.7°C 40.0°F4.4°C 84% 1.0 mph SW1.6 kmh SW 3.0 mph4.8 kmh 29.71 in1006.1 mb 0.00 in0.0 mm 0.00 in0.0 mm 0.00 in0.0 mm
08:20 AM 44.2°F6.8°C 40.0°F4.4°C 84% Calm Calm 4.0 mph6.4 kmh 29.71 in1006.1 mb 0.00 in0.0 mm 0.00 in0.0 mm 0.00 in0.0 mm
08:15 AM 44.3°F6.8°C 40.0°F4.4°C 84% 1.0 mph WSW1.6 kmh WSW 4.0 mph6.4 kmh 29.71 in1006.1 mb 0.00 in0.0 mm 0.00 in0.0 mm 0.00 in0.0 mm
08:10 AM 44.6°F7.0°C 40.0°F4.4°C 84% 2.0 mph W3.2 kmh W 4.0 mph6.4 kmh 29.71 in1006.1 mb 0.00 in0.0 mm 0.00 in0.0 mm 0.00 in0.0 mm
08:05 AM 44.6°F7.0°C 40.0°F4.4°C 84% 1.0 mph WSW1.6 kmh WSW 4.0 mph6.4 kmh 29.71 in1006.1 mb 0.00 in0.0 mm 0.00 in0.0 mm 0.00 in0.0 mm
08:00 AM 44.6°F7.0°C 40.0°F4.4°C 84% 1.0 mph W1.6 kmh W 4.0 mph6.4 kmh 29.71 in1006.1 mb 0.00 in0.0 mm 0.00 in0.0 mm 0.00 in0.0 mm
07:55 AM 44.6°F7.0°C 40.0°F4.4°C 84% 2.0 mph W3.2 kmh W 5.0 mph8.0 kmh 29.71 in1006.1 mb 0.00 in0.0 mm 0.00 in0.0 mm 0.00 in0.0 mm
07:50 AM 44.6°F7.0°C 40.0°F4.4°C 84% 1.0 mph W1.6 kmh W 5.0 mph8.0 kmh 29.71 in1006.1 mb 0.00 in0.0 mm 0.00 in0.0 mm 0.00 in0.0 mm
07:45 AM 44.5°F6.9°C 40.0°F4.4°C 84% 1.0 mph W1.6 kmh W 5.0 mph8.0 kmh 29.71 in1006.1 mb 0.00 in0.0 mm 0.00 in0.0 mm 0.00 in0.0 mm
07:40 AM 44.5°F6.9°C 40.0°F4.4°C 84% 2.0 mph WSW3.2 kmh WSW 6.0 mph9.7 kmh 29.71 in1006.1 mb 0.00 in0.0 mm 0.00 in0.0 mm 0.00 in0.0 mm
07:35 AM 44.5°F6.9°C 40.0°F4.4°C 84% 2.0 mph WSW3.2 kmh WSW 6.0 mph9.7 kmh 29.71 in1006.1 mb 0.00 in0.0 mm 0.00 in0.0 mm 0.00 in0.0 mm
07:30 AM 44.6°F7.0°C 40.0°F4.4°C 84% 3.0 mph WSW4.8 kmh WSW 4.0 mph6.4 kmh 29.71 in1006.1 mb 0.00 in0.0 mm 0.00 in0.0 mm 0.00 in0.0 mm
07:25 AM 44.6°F7.0°C 40.0°F4.4°C 84% 2.0 mph W3.2 kmh W 4.0 mph6.4 kmh 29.71 in1006.1 mb 0.00 in0.0 mm 0.00 in0.0 mm 0.00 in0.0 mm
07:20 AM 44.8°F7.1°C 40.0°F4.4°C 84% 2.0 mph WSW3.2 kmh WSW 6.0 mph9.7 kmh 29.71 in1006.1 mb 0.00 in0.0 mm 0.00 in0.0 mm 0.00 in0.0 mm
07:15 AM 44.8°F7.1°C 40.0°F4.4°C 84% 2.0 mph SW3.2 kmh SW 6.0 mph9.7 kmh 29.71 in1006.1 mb 0.00 in0.0 mm 0.00 in0.0 mm 0.00 in0.0 mm
07:10 AM 44.8°F7.1°C 40.0°F4.4°C 84% 2.0 mph SW3.2 kmh SW 5.0 mph8.0 kmh 29.71 in1006.1 mb 0.00 in0.0 mm 0.00 in0.0 mm 0.00 in0.0 mm
07:05 AM 44.9°F7.2°C 40.0°F4.4°C 84% 2.0 mph WSW3.2 kmh WSW 5.0 mph8.0 kmh 29.71 in1006.1 mb 0.00 in0.0 mm 0.00 in0.0 mm 0.00 in0.0 mm
07:00 AM 45.0°F7.2°C 41.0°F5.0°C 84% 2.0 mph SW3.2 kmh SW 6.0 mph9.7 kmh 29.71 in1006.1 mb 0.00 in0.0 mm 0.00 in0.0 mm 0.00 in0.0 mm
06:55 AM 45.1°F7.3°C 41.0°F5.0°C 84% 2.0 mph WSW3.2 kmh WSW 6.0 mph9.7 kmh 29.71 in1006.1 mb 0.00 in0.0 mm 0.00 in0.0 mm 0.00 in0.0 mm
06:50 AM 45.3°F7.4°C 41.0°F5.0°C 84% Calm Calm 6.0 mph9.7 kmh 29.71 in1006.1 mb 0.00 in0.0 mm 0.00 in0.0 mm 0.00 in0.0 mm
06:45 AM 45.2°F7.3°C 41.0°F5.0°C 84% 1.0 mph W1.6 kmh W 6.0 mph9.7 kmh 29.71 in1006.1 mb 0.00 in0.0 mm 0.00 in0.0 mm 0.00 in0.0 mm
06:40 AM 45.2°F7.3°C 41.0°F5.0°C 84% Calm Calm 5.0 mph8.0 kmh 29.71 in1006.1 mb 0.00 in0.0 mm 0.00 in0.0 mm 0.00 in0.0 mm
06:35 AM 45.3°F7.4°C 41.0°F5.0°C 84% 2.0 mph SW3.2 kmh SW 5.0 mph8.0 kmh 29.70 in1005.8 mb 0.00 in0.0 mm 0.00 in0.0 mm 0.00 in0.0 mm
06:30 AM 45.4°F7.4°C 41.0°F5.0°C 83% 5.0 mph W8.0 kmh W 5.0 mph8.0 kmh 29.70 in1005.8 mb 0.00 in0.0 mm 0.00 in0.0 mm 0.00 in0.0 mm
06:25 AM 45.4°F7.4°C 41.0°F5.0°C 83% 1.0 mph WSW1.6 kmh WSW 4.0 mph6.4 kmh 29.70 in1005.8 mb 0.00 in0.0 mm 0.00 in0.0 mm 0.00 in0.0 mm
06:20 AM 45.5°F7.5°C 40.0°F4.4°C 82% 1.0 mph SW1.6 kmh SW 5.0 mph8.0 kmh 29.70 in1005.8 mb 0.00 in0.0 mm 0.00 in0.0 mm 0.00 in0.0 mm
06:15 AM 45.6°F7.6°C 40.0°F4.4°C 82% 1.0 mph WSW1.6 kmh WSW 6.0 mph9.7 kmh 29.70 in1005.8 mb 0.00 in0.0 mm 0.00 in0.0 mm 0.00 in0.0 mm
06:10 AM 45.7°F7.6°C 40.0°F4.4°C 81% 6.0 mph W9.7 kmh W 6.0 mph9.7 kmh 29.70 in1005.8 mb 0.00 in0.0 mm 0.00 in0.0 mm 0.00 in0.0 mm
06:05 AM 45.8°F7.7°C 40.0°F4.4°C 81% 2.0 mph WSW3.2 kmh WSW 6.0 mph9.7 kmh 29.70 in1005.8 mb 0.00 in0.0 mm 0.00 in0.0 mm 0.00 in0.0 mm
06:00 AM 46.0°F7.8°C 41.0°F5.0°C 81% 2.0 mph W3.2 kmh W 4.0 mph6.4 kmh 29.70 in1005.8 mb 0.00 in0.0 mm 0.00 in0.0 mm 0.00 in0.0 mm
05:55 AM 46.0°F7.8°C 41.0°F5.0°C 81% 2.0 mph WSW3.2 kmh WSW 5.0 mph8.0 kmh 29.70 in1005.8 mb 0.00 in0.0 mm 0.00 in0.0 mm 0.00 in0.0 mm
05:50 AM 46.0°F7.8°C 40.0°F4.4°C 80% 3.0 mph WSW4.8 kmh WSW 5.0 mph8.0 kmh 29.69 in1005.4 mb 0.00 in0.0 mm 0.00 in0.0 mm 0.00 in0.0 mm
05:45 AM 46.1°F7.8°C 40.0°F4.4°C 80% 2.0 mph SW3.2 kmh SW 4.0 mph6.4 kmh 29.69 in1005.4 mb 0.00 in0.0 mm 0.00 in0.0 mm 0.00 in0.0 mm
05:40 AM 46.3°F7.9°C 40.0°F4.4°C 80% 1.0 mph WSW1.6 kmh WSW 4.0 mph6.4 kmh 29.69 in1005.4 mb 0.00 in0.0 mm 0.00 in0.0 mm 0.00 in0.0 mm
05:35 AM 46.5°F8.1°C 40.0°F4.4°C 79% 3.0 mph W4.8 kmh W 8.0 mph12.9 kmh 29.69 in1005.4 mb 0.00 in0.0 mm 0.00 in0.0 mm 0.00 in0.0 mm
05:30 AM 46.7°F8.2°C 41.0°F5.0°C 79% 1.0 mph W1.6 kmh W 8.0 mph12.9 kmh 29.69 in1005.4 mb 0.00 in0.0 mm 0.00 in0.0 mm 0.00 in0.0 mm
05:25 AM 46.7°F8.2°C 41.0°F5.0°C 79% 2.0 mph WSW3.2 kmh WSW 8.0 mph12.9 kmh 29.69 in1005.4 mb 0.00 in0.0 mm 0.00 in0.0 mm 0.00 in0.0 mm
05:20 AM 46.7°F8.2°C 41.0°F5.0°C 79% 2.0 mph WNW3.2 kmh WNW 6.0 mph9.7 kmh 29.69 in1005.4 mb 0.00 in0.0 mm 0.00 in0.0 mm 0.00 in0.0 mm
05:15 AM 46.9°F8.3°C 41.0°F5.0°C 79% 3.0 mph WSW4.8 kmh WSW 7.0 mph11.3 kmh 29.69 in1005.4 mb 0.00 in0.0 mm 0.00 in0.0 mm 0.00 in0.0 mm
05:10 AM 47.0°F8.3°C 41.0°F5.0°C 79% 3.0 mph WSW4.8 kmh WSW 7.0 mph11.3 kmh 29.69 in1005.4 mb 0.00 in0.0 mm 0.00 in0.0 mm 0.00 in0.0 mm
05:05 AM 47.3°F8.5°C 41.0°F5.0°C 79% 2.0 mph WSW3.2 kmh WSW 6.0 mph9.7 kmh 29.68 in1005.1 mb 0.00 in0.0 mm 0.00 in0.0 mm 0.00 in0.0 mm
05:00 AM 47.3°F8.5°C 41.0°F5.0°C 79% 6.0 mph SW9.7 kmh SW 6.0 mph9.7 kmh 29.69 in1005.4 mb 0.00 in0.0 mm 0.00 in0.0 mm 0.00 in0.0 mm
04:55 AM 47.4°F8.6°C 41.0°F5.0°C 79% 2.0 mph WSW3.2 kmh WSW 6.0 mph9.7 kmh 29.68 in1005.1 mb 0.00 in0.0 mm 0.00 in0.0 mm 0.00 in0.0 mm
04:50 AM 47.7°F8.7°C 41.0°F5.0°C 78% 2.0 mph WSW3.2 kmh WSW 9.0 mph14.5 kmh 29.68 in1005.1 mb 0.00 in0.0 mm 0.00 in0.0 mm 0.00 in0.0 mm
04:45 AM 47.9°F8.8°C 41.0°F5.0°C 78% 4.0 mph WSW6.4 kmh WSW 9.0 mph14.5 kmh 29.68 in1005.1 mb 0.00 in0.0 mm 0.00 in0.0 mm 0.00 in0.0 mm
04:40 AM 48.1°F8.9°C 42.0°F5.6°C 78% 4.0 mph WNW6.4 kmh WNW 9.0 mph14.5 kmh 29.68 in1005.1 mb 0.00 in0.0 mm 0.00 in0.0 mm 0.00 in0.0 mm
04:35 AM 48.1°F8.9°C 42.0°F5.6°C 78% 3.0 mph WSW4.8 kmh WSW 9.0 mph14.5 kmh 29.68 in1005.1 mb 0.00 in0.0 mm 0.00 in0.0 mm 0.00 in0.0 mm
04:30 AM 48.3°F9.1°C 42.0°F5.6°C 78% 4.0 mph WNW6.4 kmh WNW 10.0 mph16.1 kmh 29.68 in1005.1 mb 0.00 in0.0 mm 0.00 in0.0 mm 0.00 in0.0 mm
04:25 AM 48.3°F9.1°C 42.0°F5.6°C 78% 4.0 mph W6.4 kmh W 8.0 mph12.9 kmh 29.68 in1005.1 mb 0.00 in0.0 mm 0.00 in0.0 mm 0.00 in0.0 mm
04:20 AM 48.4°F9.1°C 42.0°F5.6°C 78% 3.0 mph W4.8 kmh W 8.0 mph12.9 kmh 29.68 in1005.1 mb 0.00 in0.0 mm 0.00 in0.0 mm 0.00 in0.0 mm
04:15 AM 48.6°F9.2°C 42.0°F5.6°C 78% 4.0 mph WSW6.4 kmh WSW 8.0 mph12.9 kmh 29.68 in1005.1 mb 0.00 in0.0 mm 0.00 in0.0 mm 0.00 in0.0 mm
04:10 AM 48.8°F9.3°C 42.0°F5.6°C 78% 3.0 mph SW4.8 kmh SW 9.0 mph14.5 kmh 29.67 in1004.7 mb 0.00 in0.0 mm 0.00 in0.0 mm 0.00 in0.0 mm
04:05 AM 48.8°F9.3°C 42.0°F5.6°C 78% 2.0 mph SW3.2 kmh SW 9.0 mph14.5 kmh 29.68 in1005.1 mb 0.00 in0.0 mm 0.00 in0.0 mm 0.00 in0.0 mm
04:00 AM 48.9°F9.4°C 42.0°F5.6°C 78% 3.0 mph WSW4.8 kmh WSW 8.0 mph12.9 kmh 29.67 in1004.7 mb 0.00 in0.0 mm 0.00 in0.0 mm 0.00 in0.0 mm
03:55 AM 48.9°F9.4°C 43.0°F6.1°C 79% 4.0 mph NW6.4 kmh NW 7.0 mph11.3 kmh 29.67 in1004.7 mb 0.00 in0.0 mm 0.00 in0.0 mm 0.00 in0.0 mm
03:50 AM 48.7°F9.3°C 42.0°F5.6°C 79% 4.0 mph W6.4 kmh W 9.0 mph14.5 kmh 29.66 in1004.4 mb 0.00 in0.0 mm 0.00 in0.0 mm 0.00 in0.0 mm
03:45 AM 48.7°F9.3°C 42.0°F5.6°C 79% 4.0 mph WSW6.4 kmh WSW 9.0 mph14.5 kmh 29.67 in1004.7 mb 0.00 in0.0 mm 0.00 in0.0 mm 0.00 in0.0 mm
03:40 AM 48.6°F9.2°C 43.0°F6.1°C 80% 5.0 mph W8.0 kmh W 7.0 mph11.3 kmh 29.66 in1004.4 mb 0.00 in0.0 mm 0.00 in0.0 mm 0.00 in0.0 mm
03:35 AM 48.6°F9.2°C 43.0°F6.1°C 80% 1.0 mph WSW1.6 kmh WSW 7.0 mph11.3 kmh 29.66 in1004.4 mb 0.00 in0.0 mm 0.00 in0.0 mm 0.00 in0.0 mm
03:30 AM 48.6°F9.2°C 43.0°F6.1°C 80% 2.0 mph SW3.2 kmh SW 8.0 mph12.9 kmh 29.67 in1004.7 mb 0.00 in0.0 mm 0.00 in0.0 mm 0.00 in0.0 mm
03:25 AM 48.6°F9.2°C 43.0°F6.1°C 80% 1.0 mph WSW1.6 kmh WSW 8.0 mph12.9 kmh 29.67 in1004.7 mb 0.00 in0.0 mm 0.00 in0.0 mm 0.00 in0.0 mm
03:20 AM 48.5°F9.2°C 43.0°F6.1°C 80% 2.0 mph SW3.2 kmh SW 9.0 mph14.5 kmh 29.66 in1004.4 mb 0.00 in0.0 mm 0.00 in0.0 mm 0.00 in0.0 mm
03:15 AM 48.5°F9.2°C 43.0°F6.1°C 80% 3.0 mph W4.8 kmh W 9.0 mph14.5 kmh 29.66 in1004.4 mb 0.00 in0.0 mm 0.00 in0.0 mm 0.00 in0.0 mm
03:10 AM 48.5°F9.2°C 43.0°F6.1°C 80% 4.0 mph WSW6.4 kmh WSW 12.0 mph19.3 kmh 29.66 in1004.4 mb 0.00 in0.0 mm 0.00 in0.0 mm 0.00 in0.0 mm
03:05 AM 48.4°F9.1°C 43.0°F6.1°C 80% 12.0 mph WSW19.3 kmh WSW 12.0 mph19.3 kmh 29.66 in1004.4 mb 0.00 in0.0 mm 0.00 in0.0 mm 0.00 in0.0 mm
03:00 AM 48.3°F9.1°C 42.0°F5.6°C 80% 5.0 mph SW8.0 kmh SW 8.0 mph12.9 kmh 29.66 in1004.4 mb 0.00 in0.0 mm 0.00 in0.0 mm 0.00 in0.0 mm
02:55 AM 48.1°F8.9°C 42.0°F5.6°C 80% 5.0 mph SW8.0 kmh SW 10.0 mph16.1 kmh 29.66 in1004.4 mb 0.00 in0.0 mm 0.00 in0.0 mm 0.00 in0.0 mm
02:50 AM 48.0°F8.9°C 42.0°F5.6°C 80% 1.0 mph S1.6 kmh S 10.0 mph16.1 kmh 29.66 in1004.4 mb 0.00 in0.0 mm 0.00 in0.0 mm 0.00 in0.0 mm
02:45 AM 48.0°F8.9°C 42.0°F5.6°C 80% 4.0 mph WSW6.4 kmh WSW 10.0 mph16.1 kmh 29.66 in1004.4 mb 0.00 in0.0 mm 0.00 in0.0 mm 0.00 in0.0 mm
02:40 AM 48.0°F8.9°C 42.0°F5.6°C 80% 1.0 mph WSW1.6 kmh WSW 7.0 mph11.3 kmh 29.66 in1004.4 mb 0.00 in0.0 mm 0.00 in0.0 mm 0.00 in0.0 mm
02:35 AM 48.0°F8.9°C 42.0°F5.6°C 80% 5.0 mph SW8.0 kmh SW 10.0 mph16.1 kmh 29.66 in1004.4 mb 0.00 in0.0 mm 0.00 in0.0 mm 0.00 in0.0 mm
02:30 AM 48.1°F8.9°C 42.0°F5.6°C 79% 3.0 mph W4.8 kmh W 10.0 mph16.1 kmh 29.66 in1004.4 mb 0.00 in0.0 mm 0.00 in0.0 mm 0.00 in0.0 mm
02:25 AM 47.9°F8.8°C 42.0°F5.6°C 80% 4.0 mph WSW6.4 kmh WSW 9.0 mph14.5 kmh 29.66 in1004.4 mb 0.00 in0.0 mm 0.00 in0.0 mm 0.00 in0.0 mm
02:20 AM 47.7°F8.7°C 42.0°F5.6°C 80% 3.0 mph SW4.8 kmh SW 9.0 mph14.5 kmh 29.66 in1004.4 mb 0.00 in0.0 mm 0.00 in0.0 mm 0.00 in0.0 mm
02:15 AM 47.6°F8.7°C 42.0°F5.6°C 80% 6.0 mph WSW9.7 kmh WSW 10.0 mph16.1 kmh 29.66 in1004.4 mb 0.00 in0.0 mm 0.00 in0.0 mm 0.00 in0.0 mm
02:10 AM 47.4°F8.6°C 42.0°F5.6°C 80% 3.0 mph WSW4.8 kmh WSW 9.0 mph14.5 kmh 29.66 in1004.4 mb 0.00 in0.0 mm 0.00 in0.0 mm 0.00 in0.0 mm
02:05 AM 47.3°F8.5°C 41.0°F5.0°C 80% 4.0 mph SW6.4 kmh SW 9.0 mph14.5 kmh 29.66 in1004.4 mb 0.00 in0.0 mm 0.00 in0.0 mm 0.00 in0.0 mm
02:00 AM 47.1°F8.4°C 41.0°F5.0°C 80% 5.0 mph SE8.0 kmh SE 15.0 mph24.1 kmh 29.67 in1004.7 mb 0.00 in0.0 mm 0.00 in0.0 mm 0.00 in0.0 mm
01:55 AM 47.0°F8.3°C 41.0°F5.0°C 80% 3.0 mph W4.8 kmh W 15.0 mph24.1 kmh 29.67 in1004.7 mb 0.00 in0.0 mm 0.00 in0.0 mm 0.00 in0.0 mm
01:50 AM 46.8°F8.2°C 41.0°F5.0°C 80% 2.0 mph WSW3.2 kmh WSW 8.0 mph12.9 kmh 29.66 in1004.4 mb 0.00 in0.0 mm 0.00 in0.0 mm 0.00 in0.0 mm
01:45 AM 46.7°F8.2°C 41.0°F5.0°C 80% 3.0 mph S4.8 kmh S 8.0 mph12.9 kmh 29.67 in1004.7 mb 0.00 in0.0 mm 0.00 in0.0 mm 0.00 in0.0 mm
01:40 AM 46.6°F8.1°C 41.0°F5.0°C 80% 3.0 mph SW4.8 kmh SW 11.0 mph17.7 kmh 29.67 in1004.7 mb 0.00 in0.0 mm 0.00 in0.0 mm 0.00 in0.0 mm
01:35 AM 46.5°F8.1°C 41.0°F5.0°C 81% 3.0 mph SW4.8 kmh SW 8.0 mph12.9 kmh 29.67 in1004.7 mb 0.00 in0.0 mm 0.00 in0.0 mm 0.00 in0.0 mm
01:30 AM 46.5°F8.1°C 41.0°F5.0°C 81% 3.0 mph SW4.8 kmh SW 10.0 mph16.1 kmh 29.67 in1004.7 mb 0.00 in0.0 mm 0.00 in0.0 mm 0.00 in0.0 mm
01:25 AM 46.4°F8.0°C 41.0°F5.0°C 80% 4.0 mph SW6.4 kmh SW 10.0 mph16.1 kmh 29.67 in1004.7 mb 0.00 in0.0 mm 0.00 in0.0 mm 0.00 in0.0 mm
01:20 AM 46.4°F8.0°C 41.0°F5.0°C 80% 6.0 mph S9.7 kmh S 7.0 mph11.3 kmh 29.67 in1004.7 mb 0.00 in0.0 mm 0.00 in0.0 mm 0.00 in0.0 mm
01:15 AM 46.3°F7.9°C 40.0°F4.4°C 80% 3.0 mph WSW4.8 kmh WSW 7.0 mph11.3 kmh 29.68 in1005.1 mb 0.00 in0.0 mm 0.00 in0.0 mm 0.00 in0.0 mm
01:10 AM 46.3°F7.9°C 40.0°F4.4°C 80% 3.0 mph S4.8 kmh S 12.0 mph19.3 kmh 29.68 in1005.1 mb 0.00 in0.0 mm 0.00 in0.0 mm 0.00 in0.0 mm
01:05 AM 46.3°F7.9°C 40.0°F4.4°C 80% 1.0 mph SW1.6 kmh SW 12.0 mph19.3 kmh 29.68 in1005.1 mb 0.00 in0.0 mm 0.00 in0.0 mm 0.00 in0.0 mm
01:00 AM 46.2°F7.9°C 40.0°F4.4°C 79% 3.0 mph WSW4.8 kmh WSW 8.0 mph12.9 kmh 29.68 in1005.1 mb 0.00 in0.0 mm 0.00 in0.0 mm 0.00 in0.0 mm
12:55 AM 46.1°F7.8°C 40.0°F4.4°C 79% 8.0 mph SW12.9 kmh SW 11.0 mph17.7 kmh 29.68 in1005.1 mb 0.00 in0.0 mm 0.00 in0.0 mm 0.00 in0.0 mm
12:50 AM 46.1°F7.8°C 40.0°F4.4°C 78% 5.0 mph S8.0 kmh S 11.0 mph17.7 kmh 29.68 in1005.1 mb 0.00 in0.0 mm 0.00 in0.0 mm 0.00 in0.0 mm
12:45 AM 46.1°F7.8°C 40.0°F4.4°C 78% 3.0 mph SSW4.8 kmh SSW 11.0 mph17.7 kmh 29.68 in1005.1 mb 0.00 in0.0 mm 0.00 in0.0 mm 0.00 in0.0 mm
12:40 AM 46.0°F7.8°C 39.0°F3.9°C 77% 5.0 mph SSE8.0 kmh SSE 11.0 mph17.7 kmh 29.68 in1005.1 mb 0.00 in0.0 mm 0.00 in0.0 mm 0.00 in0.0 mm
12:35 AM 46.1°F7.8°C 39.0°F3.9°C 77% 3.0 mph S4.8 kmh S 9.0 mph14.5 kmh 29.68 in1005.1 mb 0.00 in0.0 mm 0.00 in0.0 mm 0.00 in0.0 mm
12:30 AM 46.1°F7.8°C 39.0°F3.9°C 76% 3.0 mph NW4.8 kmh NW 12.0 mph19.3 kmh 29.69 in1005.4 mb 0.00 in0.0 mm 0.00 in0.0 mm 0.00 in0.0 mm
12:25 AM 46.0°F7.8°C 39.0°F3.9°C 76% 4.0 mph SW6.4 kmh SW 15.0 mph24.1 kmh 29.69 in1005.4 mb 0.00 in0.0 mm 0.00 in0.0 mm 0.00 in0.0 mm
12:20 AM 46.0°F7.8°C 39.0°F3.9°C 76% 6.0 mph SSE9.7 kmh SSE 12.0 mph19.3 kmh 29.69 in1005.4 mb 0.00 in0.0 mm 0.00 in0.0 mm 0.00 in0.0 mm
12:15 AM 46.0°F7.8°C 39.0°F3.9°C 75% 4.0 mph SW6.4 kmh SW 10.0 mph16.1 kmh 29.69 in1005.4 mb 0.00 in0.0 mm 0.00 in0.0 mm 0.00 in0.0 mm
12:10 AM 46.0°F7.8°C 39.0°F3.9°C 75% 2.0 mph S3.2 kmh S 10.0 mph16.1 kmh 29.69 in1005.4 mb 0.00 in0.0 mm 0.00 in0.0 mm 0.00 in0.0 mm
12:05 AM 45.9°F7.7°C 38.0°F3.3°C 75% 6.0 mph S9.7 kmh S 10.0 mph16.1 kmh 29.69 in1005.4 mb 0.00 in0.0 mm 0.00 in0.0 mm 0.00 in0.0 mm
12:00 AM 45.9°F7.7°C 38.0°F3.3°C 75% 1.0 mph NW1.6 kmh NW 12.0 mph19.3 kmh 29.70 in1005.8 mb 0.00 in0.0 mm 0.00 in0.0 mm 0.00 in0.0 mm